Time;durP1;ratioP1;P1;durP2;ratioP2;P2;SDS_P1;SDS_P2;PMS_P1;PMS_P2;Temp;Humidity;BMP_temperature;BMP_pressure;BME280_temperature;BME280_humidity;BME280_pressure;Samples;Min_cycle;Max_cycle;Signal;HPM_P1;HPM_P2
2022/11/05 00:10:41;;;;;;;22.42;16.40;;;;;;;13.88;54.73;100689.44;4969671;28;20401;-77
2022/11/05 00:18:37;;;;;;;26.20;17.15;;;;;;;14.00;54.78;100699.56;4970271;28;20724;-78
2022/11/05 00:21:03;;;;;;;22.92;16.40;;;;;;;14.06;54.44;100696.97;4973720;28;20388;-78
2022/11/05 00:26:12;;;;;;;25.80;16.60;;;;;;;14.11;54.50;100686.53;4968204;28;20727;-79
2022/11/05 00:28:40;;;;;;;24.45;16.77;;;;;;;14.18;54.56;100681.25;4973381;28;20483;-78
2022/11/05 00:31:12;;;;;;;23.98;17.08;;;;;;;14.23;54.33;100683.34;4970217;28;20387;-78
2022/11/05 00:33:39;;;;;;;27.20;17.63;;;;;;;14.23;54.47;100680.69;4973980;28;20465;-78
2022/11/05 00:36:07;;;;;;;23.90;17.13;;;;;;;14.36;54.02;100679.94;4974584;28;20478;-78
2022/11/05 00:38:33;;;;;;;23.25;16.80;;;;;;;14.44;54.09;100680.59;4973405;28;20971;-79
2022/11/05 00:40:59;;;;;;;22.35;16.50;;;;;;;14.40;54.03;100673.19;4973531;28;20391;-78
2022/11/05 00:46:09;;;;;;;26.40;16.88;;;;;;;14.28;54.63;100668.41;4976578;28;20434;-78
2022/11/05 00:51:19;;;;;;;26.42;17.63;;;;;;;14.49;53.98;100670.16;4971627;28;20394;-77
2022/11/05 00:53:44;;;;;;;20.53;15.97;;;;;;;14.58;53.62;100670.84;4975783;28;20399;-78
2022/11/05 00:56:10;;;;;;;27.07;17.77;;;;;;;14.67;53.70;100674.19;4976081;28;20396;-78
2022/11/05 00:58:35;;;;;;;25.50;17.10;;;;;;;14.73;53.32;100681.41;4970464;28;20405;-79
2022/11/05 01:01:02;;;;;;;26.03;17.20;;;;;;;14.77;53.33;100677.31;4964651;28;20402;-79
2022/11/05 01:03:35;;;;;;;26.17;17.58;;;;;;;14.78;53.43;100670.94;4974355;28;20402;-79
2022/11/05 01:06:08;;;;;;;26.00;17.55;;;;;;;14.85;53.09;100665.63;4972990;28;20388;-78
2022/11/05 01:08:34;;;;;;;24.85;17.13;;;;;;;14.89;53.20;100681.06;4970264;28;20741;-77
2022/11/05 01:10:59;;;;;;;28.45;17.58;;;;;;;14.75;53.30;100674.03;4971954;28;20405;-77
2022/11/05 01:13:28;;;;;;;26.03;17.67;;;;;;;14.75;53.31;100668.69;4969247;28;20399;-77
2022/11/05 01:15:55;;;;;;;23.60;17.42;;;;;;;14.84;53.00;100664.00;4970689;28;20427;-77
2022/11/05 01:18:23;;;;;;;22.42;17.08;;;;;;;14.87;53.03;100661.75;4968176;28;20410;-76
2022/11/05 01:20:49;;;;;;;26.23;18.23;;;;;;;14.96;52.80;100666.91;4972694;28;20390;-77
2022/11/05 01:23:15;;;;;;;23.83;17.53;;;;;;;14.97;52.63;100663.22;4974335;28;20417;-75
2022/11/05 01:25:42;;;;;;;27.17;17.73;;;;;;;15.00;52.59;100662.81;4972988;28;20822;-77
2022/11/05 01:28:08;;;;;;;25.60;17.60;;;;;;;15.03;52.56;100655.22;4970742;28;20403;-78
2022/11/05 01:30:35;;;;;;;25.83;18.23;;;;;;;15.06;52.50;100651.34;4971474;28;20789;-78
2022/11/05 01:33:02;;;;;;;25.70;16.52;;;;;;;15.12;52.43;100652.38;4971472;28;20473;-77
2022/11/05 01:35:28;;;;;;;24.20;17.83;;;;;;;15.08;52.32;100644.78;4975043;28;20826;-77
2022/11/05 01:37:53;;;;;;;26.15;17.63;;;;;;;15.00;52.84;100642.31;4975908;28;20778;-78
2022/11/05 01:40:21;;;;;;;27.13;18.73;;;;;;;15.01;52.55;100633.25;4975941;28;20426;-79
2022/11/05 01:42:47;;;;;;;26.83;18.45;;;;;;;14.98;52.65;100620.31;4975842;28;20486;-77
2022/11/05 01:45:23;;;;;;;26.33;19.00;;;;;;;14.96;52.59;100618.88;4975703;28;20820;-77
2022/11/05 01:48:16;;;;;;;26.60;19.27;;;;;;;14.96;52.29;100622.34;4974776;28;20445;-77
2022/11/05 01:51:00;;;;;;;26.33;19.02;;;;;;;14.98;52.44;100620.31;4975357;28;20391;-77
2022/11/05 01:53:28;;;;;;;27.25;18.70;;;;;;;15.00;52.17;100625.44;4966935;28;20388;-77
2022/11/05 01:55:59;;;;;;;27.20;17.65;;;;;;;14.99;52.26;100610.47;4976867;28;20395;-77
2022/11/05 01:58:31;;;;;;;22.60;17.00;;;;;;;14.95;52.34;100604.72;4977063;28;20513;-78
2022/11/05 02:00:56;;;;;;;26.63;17.92;;;;;;;14.99;52.06;100607.78;4974940;28;20784;-77
2022/11/05 02:03:24;;;;;;;27.90;18.52;;;;;;;14.95;52.28;100603.88;4975088;28;20940;-77
2022/11/05 02:05:51;;;;;;;25.85;18.23;;;;;;;14.87;52.48;100596.88;4974870;28;20387;-76
2022/11/05 02:08:41;;;;;;;28.83;19.33;;;;;;;14.74;53.16;100594.16;4974506;28;20418;-77
2022/11/05 02:11:07;;;;;;;28.98;19.20;;;;;;;14.80;53.32;100602.22;4974494;28;20923;-77
2022/11/05 02:13:34;;;;;;;27.23;20.03;;;;;;;14.80;52.64;100602.22;4975014;28;20895;-77
2022/11/05 02:16:22;;;;;;;32.75;19.95;;;;;;;14.84;52.71;100600.78;4975102;28;20391;-77
2022/11/05 02:19:10;;;;;;;28.33;19.88;;;;;;;14.81;53.22;100600.34;4994456;28;20391;-77
2022/11/05 02:21:56;;;;;;;29.98;19.17;;;;;;;14.77;53.19;100594.59;4966708;28;20935;-77
2022/11/05 02:24:27;;;;;;;30.80;20.05;;;;;;;14.76;53.22;100592.94;4974265;28;20462;-77
2022/11/05 02:27:17;;;;;;;30.25;21.35;;;;;;;14.79;53.28;100602.41;4974375;28;20421;-77
2022/11/05 02:29:51;;;;;;;26.48;19.13;;;;;;;14.78;53.29;100606.91;4970547;28;20395;-76
2022/11/05 02:32:23;;;;;;;26.75;18.55;;;;;;;14.78;53.00;100598.06;4973689;28;20418;-77
2022/11/05 02:35:01;;;;;;;26.40;18.60;;;;;;;14.72;53.32;100584.50;4973321;28;20396;-77
2022/11/05 02:37:35;;;;;;;26.08;18.50;;;;;;;14.70;53.19;100585.75;4974790;28;20406;-77
2022/11/05 02:40:21;;;;;;;27.40;18.17;;;;;;;14.73;53.49;100582.69;4974470;28;20437;-77
2022/11/05 02:42:59;;;;;;;25.83;19.02;;;;;;;14.71;53.75;100590.03;4971337;28;20399;-77
2022/11/05 02:45:33;;;;;;;28.52;18.88;;;;;;;14.67;53.49;100594.13;4969893;28;20401;-77
2022/11/05 02:48:14;;;;;;;25.30;19.40;;;;;;;14.58;53.69;100596.16;4974732;28;20426;-77
2022/11/05 02:51:07;;;;;;;30.70;19.45;;;;;;;14.34;54.19;100584.94;4992919;28;20946;-78
2022/11/05 02:53:40;;;;;;;26.23;18.88;;;;;;;14.38;53.92;100608.56;4999847;28;20784;-78
2022/11/05 02:56:38;;;;;;;26.75;17.95;;;;;;;14.44;53.76;100611.25;4959835;28;20381;-77
2022/11/05 02:59:03;;;;;;;29.33;19.17;;;;;;;14.42;53.90;100610.66;4969428;28;20788;-78
2022/11/05 03:01:29;;;;;;;29.10;20.08;;;;;;;14.20;53.99;100601.91;4978171;28;20387;-77
2022/11/05 03:04:04;;;;;;;29.67;20.50;;;;;;;14.27;53.96;100601.94;4974304;28;20391;-78
2022/11/05 03:07:05;;;;;;;71.20;52.40;;;;;;;14.32;53.44;100618.16;4974389;28;20447;-77
2022/11/05 03:09:30;;;;;;;29.70;20.77;;;;;;;14.24;53.61;100624.50;4974309;28;20395;-77
2022/11/05 03:12:28;;;;;;;32.63;21.70;;;;;;;14.15;53.53;100629.16;4974614;28;20393;-77
2022/11/05 03:15:24;;;;;;;31.98;23.35;;;;;;;14.10;53.63;100630.75;4983823;28;20488;-78
2022/11/05 03:18:10;;;;;;;32.60;23.45;;;;;;;13.99;53.75;100629.47;4970842;28;20387;-77
2022/11/05 03:21:08;;;;;;;33.28;22.20;;;;;;;13.86;54.34;100635.50;4961805;28;20396;-78
2022/11/05 03:23:43;;;;;;;28.50;20.85;;;;;;;13.78;54.45;100640.97;4973568;28;20498;-77
2022/11/05 03:26:32;;;;;;;27.58;19.73;;;;;;;13.66;54.90;100640.66;4974735;28;20384;-77
2022/11/05 03:29:19;;;;;;;28.10;19.92;;;;;;;13.56;55.31;100635.69;4960917;28;20403;-78
2022/11/05 03:31:48;;;;;;;30.50;19.73;;;;;;;13.59;55.31;100653.09;4960205;28;20495;-77
2022/11/05 03:34:16;;;;;;;27.60;20.02;;;;;;;13.54;55.26;100642.19;4973891;28;20479;-78
2022/11/05 03:36:51;;;;;;;29.87;19.93;;;;;;;13.51;55.57;100645.25;4974270;28;20395;-77
2022/11/05 03:39:23;;;;;;;28.73;19.42;;;;;;;13.55;55.08;100649.19;4975083;28;20392;-78
2022/11/05 03:41:51;;;;;;;32.35;20.50;;;;;;;13.63;54.88;100654.38;4966566;28;20802;-77
2022/11/05 03:44:25;;;;;;;26.27;19.80;;;;;;;13.69;54.80;100650.13;4972372;28;20425;-77
2022/11/05 03:46:55;;;;;;;32.45;20.55;;;;;;;13.62;55.01;100641.25;4975079;28;20485;-78
2022/11/05 03:49:26;;;;;;;29.67;20.30;;;;;;;13.52;55.41;100649.56;4973882;28;20403;-78
2022/11/05 03:52:13;;;;;;;30.65;21.10;;;;;;;13.57;55.08;100653.28;4967898;28;20437;-78
2022/11/05 03:54:39;;;;;;;28.40;20.35;;;;;;;13.47;55.09;100655.47;4969610;28;20403;-78
2022/11/05 03:57:08;;;;;;;28.20;20.75;;;;;;;13.42;55.60;100646.41;4976751;28;20426;-75
2022/11/05 03:59:41;;;;;;;30.40;21.13;;;;;;;13.42;55.48;100652.53;4983642;28;20395;-76
2022/11/05 04:02:09;;;;;;;26.95;19.00;;;;;;;13.42;55.34;100647.22;4981906;28;20414;-76
2022/11/05 04:04:34;;;;;;;24.60;18.43;;;;;;;13.46;55.59;100653.81;4981479;28;20407;-77
2022/11/05 04:15:11;;;;;;;29.48;19.85;;;;;;;13.73;54.06;100646.06;4980001;28;20486;-77
2022/11/05 04:17:37;;;;;;;25.37;18.70;;;;;;;13.60;54.64;100641.44;4980116;28;20780;-77
2022/11/05 04:25:31;;;;;;;24.65;17.30;;;;;;;13.27;55.27;100649.91;4979600;28;20407;-76
2022/11/05 04:27:59;;;;;;;23.33;16.63;;;;;;;13.10;55.83;100656.47;4980612;28;20423;-76
2022/11/05 04:30:25;;;;;;;21.98;16.17;;;;;;;13.00;56.18;100659.44;4980825;28;20402;-76
2022/11/05 04:33:04;;;;;;;24.65;16.23;;;;;;;12.98;56.50;100666.78;4980286;28;20396;-76
2022/11/05 04:35:36;;;;;;;23.08;16.17;;;;;;;12.96;56.42;100664.31;4980219;28;20408;-78
2022/11/05 04:38:03;;;;;;;21.37;14.80;;;;;;;12.75;56.45;100675.72;4979925;28;20841;-76
2022/11/05 04:40:29;;;;;;;21.52;15.23;;;;;;;12.64;57.00;100673.53;4976155;28;20407;-78
2022/11/05 04:42:55;;;;;;;26.80;15.90;;;;;;;12.65;57.20;100663.72;4980380;28;20446;-75
2022/11/05 04:45:25;;;;;;;21.47;15.10;;;;;;;12.67;56.98;100673.16;4968437;28;20542;-76
2022/11/05 04:47:50;;;;;;;19.63;14.93;;;;;;;12.62;57.21;100667.56;4979289;28;20415;-76
2022/11/05 04:50:16;;;;;;;21.33;15.02;;;;;;;12.49;57.46;100678.84;4962961;28;20408;-77
2022/11/05 04:52:42;;;;;;;20.35;14.50;;;;;;;12.41;57.58;100671.78;4979533;28;20737;-77
2022/11/05 04:55:08;;;;;;;22.92;14.90;;;;;;;12.44;57.73;100667.94;4968942;28;20493;-77
2022/11/05 04:57:34;;;;;;;24.35;14.75;;;;;;;12.56;57.38;100673.63;4978865;28;20391;-76
2022/11/05 05:00:00;;;;;;;20.23;15.48;;;;;;;12.60;57.32;100672.25;5005324;28;20399;-76
2022/11/05 05:02:25;;;;;;;27.90;15.73;;;;;;;12.63;57.14;100679.84;4979698;28;20395;-78
2022/11/05 05:04:51;;;;;;;23.70;15.10;;;;;;;12.62;57.15;100681.69;4994611;28;20490;-78
2022/11/05 05:07:17;;;;;;;24.37;14.73;;;;;;;12.72;57.07;100683.25;4977113;28;20411;-76
2022/11/05 05:09:42;;;;;;;23.92;15.55;;;;;;;12.73;56.84;100688.38;4973585;28;20912;-77
2022/11/05 05:12:07;;;;;;;21.37;15.00;;;;;;;12.82;56.82;100689.13;4976103;28;20403;-78
2022/11/05 05:14:33;;;;;;;24.00;15.63;;;;;;;12.96;56.27;100693.59;4980814;28;20405;-78
2022/11/05 05:16:59;;;;;;;22.05;15.38;;;;;;;13.03;55.84;100687.50;4969638;28;20389;-78
2022/11/05 05:19:25;;;;;;;23.37;15.33;;;;;;;12.99;55.95;100687.06;5003060;28;20458;-77
2022/11/05 05:21:50;;;;;;;24.27;16.07;;;;;;;12.90;56.57;100694.31;4979326;28;20411;-77
2022/11/05 05:24:18;;;;;;;24.03;16.20;;;;;;;12.88;56.86;100695.53;4979345;28;20487;-78
2022/11/05 05:26:46;;;;;;;22.88;15.30;;;;;;;12.92;56.67;100707.44;4978561;28;20415;-77
2022/11/05 05:29:12;;;;;;;25.65;16.30;;;;;;;12.85;56.59;100704.69;4978436;28;20879;-78
2022/11/05 05:31:38;;;;;;;21.88;15.82;;;;;;;13.03;56.49;100704.28;4978156;28;20406;-77
2022/11/05 05:34:04;;;;;;;24.65;15.60;;;;;;;13.08;56.29;100711.72;4975754;28;20399;-77
2022/11/05 05:36:30;;;;;;;24.45;15.82;;;;;;;13.09;56.33;100706.22;4981350;28;20395;-78
2022/11/05 05:38:56;;;;;;;27.23;17.07;;;;;;;13.24;56.05;100702.72;4984574;28;20421;-77
2022/11/05 05:41:21;;;;;;;22.23;16.20;;;;;;;13.43;55.68;100710.09;4989375;28;20399;-77
2022/11/05 05:43:47;;;;;;;28.27;15.65;;;;;;;13.45;55.05;100707.25;4977332;28;20443;-81
2022/11/05 05:46:15;;;;;;;27.23;17.30;;;;;;;13.39;55.46;100701.66;4979452;28;20395;-77
2022/11/05 05:48:41;;;;;;;24.83;17.40;;;;;;;13.41;55.47;100698.00;4979256;28;20394;-77
2022/11/05 05:51:09;;;;;;;26.45;17.70;;;;;;;13.48;55.33;100702.38;4979691;28;20379;-78
2022/11/05 05:53:36;;;;;;;27.73;17.45;;;;;;;13.50;54.96;100692.34;4979945;28;20756;-78
2022/11/05 05:56:02;;;;;;;28.35;17.33;;;;;;;13.52;55.43;100703.66;4979739;28;20379;-77
2022/11/05 05:58:32;;;;;;;22.58;16.70;;;;;;;13.57;55.27;100697.75;4980870;28;20863;-77
2022/11/05 06:01:04;;;;;;;26.47;16.87;;;;;;;13.66;55.15;100687.78;4978614;28;20824;-78
2022/11/05 06:03:29;;;;;;;27.20;17.65;;;;;;;13.51;55.09;100670.03;4988138;28;20535;-78
2022/11/05 06:06:06;;;;;;;32.35;18.60;;;;;;;13.46;55.84;100680.44;4982667;28;20407;-77
2022/11/05 06:08:33;;;;;;;27.55;18.27;;;;;;;13.61;55.44;100674.22;4980730;28;20868;-79
2022/11/05 06:10:59;;;;;;;27.45;18.92;;;;;;;13.58;55.78;100675.44;4996185;28;20454;-78
2022/11/05 06:13:25;;;;;;;29.05;18.77;;;;;;;13.57;55.59;100687.09;4978814;28;20398;-79
2022/11/05 06:15:51;;;;;;;28.08;18.80;;;;;;;13.69;55.96;100696.22;4980874;28;20379;-77
2022/11/05 06:18:17;;;;;;;28.65;19.27;;;;;;;13.79;55.72;100703.06;4976715;28;20386;-78
2022/11/05 06:20:43;;;;;;;34.30;21.55;;;;;;;13.92;55.54;100709.34;4982356;28;20391;-78
2022/11/05 06:23:08;;;;;;;32.25;21.45;;;;;;;13.89;55.87;100699.06;5003145;28;20474;-79
2022/11/05 06:25:34;;;;;;;31.20;19.90;;;;;;;13.96;55.95;100715.13;4988381;28;20387;-79
2022/11/05 06:27:59;;;;;;;31.37;20.90;;;;;;;14.07;55.29;100716.44;4986659;28;20908;-77
2022/11/05 06:30:25;;;;;;;31.97;21.43;;;;;;;14.01;55.81;100711.88;4983514;28;20442;-76
2022/11/05 06:32:50;;;;;;;31.80;21.90;;;;;;;14.01;55.87;100710.03;4984473;28;20387;-77
2022/11/05 06:35:16;;;;;;;28.55;21.23;;;;;;;14.12;56.04;100716.69;4982225;28;20391;-77
2022/11/05 06:37:41;;;;;;;37.30;22.00;;;;;;;14.21;55.76;100712.03;4990183;28;20457;-78
2022/11/05 06:40:08;;;;;;;31.27;21.47;;;;;;;14.33;55.38;100705.13;4985505;28;20394;-78
2022/11/05 06:42:34;;;;;;;33.45;21.70;;;;;;;14.39;55.11;100698.22;4974850;28;20392;-78
2022/11/05 06:45:00;;;;;;;34.35;22.73;;;;;;;14.48;55.27;100711.19;4982431;28;20919;-78
2022/11/05 06:47:25;;;;;;;34.95;22.95;;;;;;;14.59;55.04;100719.72;4981591;28;20418;-78
2022/11/05 06:49:51;;;;;;;34.87;24.40;;;;;;;14.47;55.39;100706.88;4980936;28;20414;-78
2022/11/05 06:52:16;;;;;;;35.33;23.97;;;;;;;14.47;55.55;100708.72;4984123;28;20498;-78
2022/11/05 06:54:43;;;;;;;36.97;25.00;;;;;;;14.55;55.60;100697.91;4982837;28;20408;-78
2022/11/05 06:57:10;;;;;;;34.47;23.63;;;;;;;14.54;55.51;100688.25;4982656;28;20407;-77
2022/11/05 06:59:37;;;;;;;34.03;22.75;;;;;;;14.41;55.89;100685.50;5002839;28;20728;-76
2022/11/05 07:02:03;;;;;;;33.90;22.20;;;;;;;14.27;56.07;100673.94;5009097;28;20392;-78
2022/11/05 07:04:28;;;;;;;30.27;20.50;;;;;;;14.28;56.20;100673.75;5002119;28;20533;-78
2022/11/05 07:06:54;;;;;;;33.95;21.33;;;;;;;14.28;56.39;100680.91;4981165;28;20464;-79
2022/11/05 07:09:19;;;;;;;29.63;21.80;;;;;;;14.31;56.52;100673.34;5017062;28;20387;-77
2022/11/05 07:11:45;;;;;;;30.63;22.67;;;;;;;14.37;56.25;100684.22;5017121;28;20441;-78
2022/11/05 07:14:10;;;;;;;31.33;22.37;;;;;;;14.43;56.23;100700.28;5016826;28;20379;-78
2022/11/05 07:16:36;;;;;;;30.23;20.47;;;;;;;14.53;55.78;100708.78;5018836;28;21271;-79
2022/11/05 07:19:01;;;;;;;29.08;20.10;;;;;;;14.56;55.66;100717.41;4987548;28;20392;-79
2022/11/05 07:21:27;;;;;;;31.23;20.37;;;;;;;14.59;55.55;100715.19;5013634;28;20390;-78
2022/11/05 07:23:53;;;;;;;29.45;20.40;;;;;;;14.45;56.01;100713.44;5011997;28;20462;-77
2022/11/05 07:26:19;;;;;;;31.00;19.93;;;;;;;14.34;55.91;100706.78;5017404;28;20478;-78
2022/11/05 07:28:47;;;;;;;33.80;19.90;;;;;;;14.31;55.85;100704.50;5016460;28;20410;-78
2022/11/05 07:31:12;;;;;;;32.45;19.80;;;;;;;14.44;55.77;100707.28;5012877;28;20780;-78
2022/11/05 07:33:38;;;;;;;31.67;20.90;;;;;;;14.47;55.64;100711.38;5009513;28;20400;-77
2022/11/05 07:36:04;;;;;;;30.83;20.10;;;;;;;14.51;55.48;100716.16;5011305;28;20502;-78
2022/11/05 07:38:30;;;;;;;29.45;20.65;;;;;;;14.58;55.46;100715.38;4980963;28;20385;-78
2022/11/05 07:40:59;;;;;;;28.90;19.80;;;;;;;14.80;55.13;100716.97;4977863;28;20545;-79
2022/11/05 07:43:24;;;;;;;31.38;20.25;;;;;;;14.86;54.62;100713.47;4976480;28;20408;-78
2022/11/05 07:45:50;;;;;;;28.45;19.50;;;;;;;14.85;54.58;100701.16;4977899;28;20460;-80
2022/11/05 07:48:15;;;;;;;31.73;20.17;;;;;;;14.84;54.73;100699.50;4975605;28;20423;-78
2022/11/05 07:50:41;;;;;;;31.75;20.52;;;;;;;15.01;54.63;100708.00;4975569;28;20422;-78
2022/11/05 07:53:10;;;;;;;31.87;19.90;;;;;;;14.97;54.63;100703.28;4969941;28;20391;-78
2022/11/05 07:55:35;;;;;;;29.98;20.95;;;;;;;15.04;54.67;100704.94;4977631;28;20893;-79
2022/11/05 07:58:01;;;;;;;32.80;21.85;;;;;;;15.23;54.34;100697.19;4972958;28;20543;-79
2022/11/05 08:00:28;;;;;;;31.38;20.73;;;;;;;15.29;54.17;100694.53;4989024;28;20383;-79
2022/11/05 08:03:02;;;;;;;31.75;20.92;;;;;;;15.41;53.94;100688.59;5002397;28;20939;-79
2022/11/05 08:05:29;;;;;;;31.67;21.65;;;;;;;15.47;53.67;100688.63;4979371;28;20401;-79
2022/11/05 08:07:56;;;;;;;32.17;21.40;;;;;;;15.43;53.87;100686.53;4981169;28;20415;-78
2022/11/05 08:10:23;;;;;;;31.70;21.33;;;;;;;15.46;53.62;100689.63;4975199;28;20401;-78
2022/11/05 08:12:51;;;;;;;31.10;21.45;;;;;;;15.46;53.45;100683.47;4988778;28;20387;-77
2022/11/05 08:15:17;;;;;;;34.92;21.63;;;;;;;15.61;53.20;100676.13;4978960;28;20407;-78
2022/11/05 08:17:42;;;;;;;32.57;22.00;;;;;;;15.64;53.08;100686.38;4981423;28;20397;-78
2022/11/05 08:20:09;;;;;;;36.23;21.43;;;;;;;15.78;52.59;100676.56;4993512;28;20399;-78
2022/11/05 08:22:34;;;;;;;29.83;20.42;;;;;;;15.91;51.67;100677.59;4974437;28;20424;-78
2022/11/05 08:25:00;;;;;;;32.10;21.50;;;;;;;16.01;50.98;100680.69;4948297;28;20425;-77
2022/11/05 08:27:25;;;;;;;31.73;21.27;;;;;;;15.97;50.81;100688.28;4994081;28;20442;-76
2022/11/05 08:29:53;;;;;;;34.45;21.15;;;;;;;15.97;50.39;100696.31;4983864;28;20492;-77
2022/11/05 08:32:19;;;;;;;32.27;21.50;;;;;;;15.99;50.22;100685.38;4982097;28;20410;-78
2022/11/05 08:34:44;;;;;;;35.55;21.70;;;;;;;16.10;50.38;100681.25;4972241;28;20423;-79
2022/11/05 08:37:10;;;;;;;36.30;22.20;;;;;;;16.29;50.34;100676.94;4978204;28;20459;-78
2022/11/05 08:39:36;;;;;;;34.63;21.25;;;;;;;16.49;50.01;100687.59;4983323;28;20402;-79
2022/11/05 08:42:01;;;;;;;31.15;21.15;;;;;;;16.54;49.85;100685.13;4974120;28;20408;-78
2022/11/05 08:44:27;;;;;;;31.20;21.03;;;;;;;16.55;49.54;100686.78;4983112;28;20391;-79
2022/11/05 08:46:54;;;;;;;35.35;21.65;;;;;;;16.48;49.68;100699.34;4999159;28;20505;-78
2022/11/05 08:49:20;;;;;;;35.88;25.17;;;;;;;16.40;49.74;100692.34;4981309;28;20449;-78
2022/11/05 08:51:45;;;;;;;31.40;21.08;;;;;;;16.46;49.34;100691.53;4978524;28;20407;-79
2022/11/05 08:54:12;;;;;;;39.88;25.13;;;;;;;16.51;49.00;100683.69;4982080;28;20792;-78
2022/11/05 08:56:38;;;;;;;32.70;20.98;;;;;;;16.62;48.71;100683.03;4974854;28;20389;-78
2022/11/05 08:59:05;;;;;;;27.45;19.42;;;;;;;16.73;48.10;100694.94;4972423;28;20409;-78
2022/11/05 09:01:32;;;;;;;28.90;20.38;;;;;;;16.72;47.72;100695.16;4992012;28;20403;-77
2022/11/05 09:03:58;;;;;;;47.10;29.55;;;;;;;16.67;47.87;100711.81;4989510;28;20392;-79
2022/11/05 09:06:23;;;;;;;31.80;20.50;;;;;;;16.76;47.39;100712.41;5000609;28;20396;-78
2022/11/05 09:08:49;;;;;;;30.20;20.98;;;;;;;16.86;47.20;100707.47;4975616;28;20482;-79
2022/11/05 09:11:15;;;;;;;46.33;28.67;;;;;;;16.92;47.14;100720.00;4975844;28;20545;-79
2022/11/05 09:13:41;;;;;;;34.00;21.45;;;;;;;16.91;47.08;100718.38;4974445;28;20437;-79
2022/11/05 09:16:20;;;;;;;32.55;21.73;;;;;;;16.96;46.92;100717.72;4984594;28;20391;-79
2022/11/05 09:18:45;;;;;;;32.90;20.70;;;;;;;17.01;46.66;100720.59;4979175;28;20379;-78
2022/11/05 09:21:11;;;;;;;30.88;21.10;;;;;;;17.00;46.61;100714.44;4985554;28;20453;-78
2022/11/05 09:23:37;;;;;;;31.27;21.17;;;;;;;17.02;46.39;100714.22;4996466;28;20510;-79
2022/11/05 09:26:03;;;;;;;33.67;21.42;;;;;;;17.10;46.36;100703.25;4999597;28;20427;-79
2022/11/05 09:28:30;;;;;;;31.73;20.90;;;;;;;17.02;46.41;100700.84;4973541;28;20465;-78
2022/11/05 09:30:55;;;;;;;31.88;21.73;;;;;;;16.94;46.57;100693.03;4979495;28;20479;-78
2022/11/05 09:33:24;;;;;;;31.63;21.83;;;;;;;17.02;46.41;100700.03;4990130;28;20393;-80
2022/11/05 09:35:51;;;;;;;30.08;22.38;;;;;;;17.13;46.25;100702.84;4983671;28;20382;-79
2022/11/05 09:38:18;;;;;;;32.00;21.80;;;;;;;17.26;46.23;100693.91;4986027;28;20411;-79
2022/11/05 09:41:01;;;;;;;31.33;21.17;;;;;;;17.36;46.18;100696.94;4991014;28;20473;-79
2022/11/05 09:43:33;;;;;;;32.70;22.17;;;;;;;17.41;45.84;100685.56;4985877;28;20389;-78
2022/11/05 09:46:03;;;;;;;30.88;21.77;;;;;;;17.36;45.52;100694.25;4979156;28;20404;-79
2022/11/05 09:48:31;;;;;;;33.63;21.70;;;;;;;17.41;45.28;100696.28;4978926;28;20460;-79
2022/11/05 09:50:57;;;;;;;28.83;21.30;;;;;;;17.36;45.45;100685.41;4980623;28;20392;-77
2022/11/05 09:53:24;;;;;;;29.30;21.00;;;;;;;17.48;45.24;100683.66;4979538;28;20482;-79
2022/11/05 09:56:13;;;;;;;30.48;21.48;;;;;;;17.56;44.99;100693.31;4971643;28;20395;-78
2022/11/05 09:58:47;;;;;;;33.25;21.42;;;;;;;17.56;44.84;100698.69;4977465;28;20422;-78
2022/11/05 10:01:20;;;;;;;35.13;21.20;;;;;;;17.64;44.83;100698.41;4983452;28;20399;-77
2022/11/05 10:03:52;;;;;;;29.33;21.47;;;;;;;17.75;44.80;100691.53;4990740;28;20913;-81
2022/11/05 10:06:21;;;;;;;32.15;20.75;;;;;;;17.82;44.75;100694.97;4982105;28;20383;-79
2022/11/05 10:09:08;;;;;;;29.27;20.17;;;;;;;17.89;45.03;100689.59;4981480;28;20485;-78
2022/11/05 10:11:52;;;;;;;34.42;22.00;;;;;;;17.95;44.74;100694.91;4980149;28;20407;-78
2022/11/05 10:14:23;;;;;;;28.55;21.17;;;;;;;18.00;44.51;100694.25;4980715;28;20414;-79
2022/11/05 10:17:16;;;;;;;32.38;20.83;;;;;;;18.06;44.41;100684.50;4988144;28;20377;-79
2022/11/05 10:20:14;;;;;;;30.98;21.13;;;;;;;18.08;44.26;100685.94;4990644;28;20757;-79
2022/11/05 10:22:40;;;;;;;32.03;22.02;;;;;;;18.02;44.38;100675.25;4979707;28;20432;-78
2022/11/05 10:25:29;;;;;;;32.17;20.90;;;;;;;18.07;44.14;100681.59;4986564;28;20391;-79
2022/11/05 10:27:56;;;;;;;31.83;21.63;;;;;;;18.13;44.24;100685.25;4986476;28;20407;-79
2022/11/05 10:30:22;;;;;;;32.05;20.90;;;;;;;18.18;44.39;100689.97;4986666;28;20396;-78
2022/11/05 10:32:53;;;;;;;30.60;20.63;;;;;;;18.26;44.60;100684.31;4978372;28;20815;-79
2022/11/05 10:35:21;;;;;;;33.35;21.25;;;;;;;18.26;43.84;100673.59;4983723;28;20384;-79
2022/11/05 10:37:52;;;;;;;30.70;21.83;;;;;;;18.22;43.65;100675.06;4983695;28;20398;-80
2022/11/05 10:40:45;;;;;;;30.27;20.50;;;;;;;18.31;43.54;100674.56;4996848;28;20403;-78
2022/11/05 10:43:33;;;;;;;33.35;20.77;;;;;;;18.47;43.48;100677.69;4981880;28;20402;-80
2022/11/05 10:46:20;;;;;;;29.42;20.85;;;;;;;18.58;43.36;100679.63;4971518;28;20387;-77
2022/11/05 10:48:59;;;;;;;28.98;20.77;;;;;;;18.63;43.03;100682.47;4982302;28;20438;-80
2022/11/05 10:51:25;;;;;;;30.10;20.77;;;;;;;18.55;43.15;100674.72;4978789;28;20496;-79
2022/11/05 10:53:59;;;;;;;30.55;20.52;;;;;;;18.62;43.04;100678.16;4960930;28;20420;-79
2022/11/05 10:56:37;;;;;;;25.48;16.63;;;;;;;18.75;45.38;100676.38;4980481;28;20390;-78
2022/11/05 10:59:05;;;;;;;28.38;17.48;;;;;;;19.28;45.65;100665.78;4968800;28;20555;-76
2022/11/05 11:01:32;;;;;;;30.67;20.97;;;;;;;19.46;43.37;100651.44;4978376;28;20470;-78
2022/11/05 11:04:26;;;;;;;31.52;21.60;;;;;;;19.30;42.56;100654.75;4984722;28;20384;-79
2022/11/05 11:06:57;;;;;;;30.70;21.23;;;;;;;19.25;42.54;100660.03;4978350;28;20960;-78
2022/11/05 11:09:27;;;;;;;35.05;22.20;;;;;;;19.14;42.50;100663.47;4986122;28;20405;-78
2022/11/05 11:12:00;;;;;;;28.17;21.03;;;;;;;19.27;42.41;100663.31;4983565;28;20387;-78
2022/11/05 11:14:26;;;;;;;30.40;21.25;;;;;;;19.27;42.19;100641.81;4984378;28;20783;-77
2022/11/05 11:16:56;;;;;;;32.50;22.10;;;;;;;19.27;41.92;100642.63;4984159;28;20471;-80
2022/11/05 11:19:26;;;;;;;31.50;22.90;;;;;;;19.37;41.75;100649.31;5016486;28;20475;-79
2022/11/05 11:22:24;;;;;;;32.37;20.60;;;;;;;19.32;42.05;100641.94;4972635;28;20388;-79
2022/11/05 11:24:52;;;;;;;30.83;21.30;;;;;;;19.28;41.85;100640.75;4980387;28;20419;-79
2022/11/05 11:27:26;;;;;;;32.42;21.02;;;;;;;19.32;42.00;100644.63;4965042;28;20409;-78
2022/11/05 11:30:00;;;;;;;36.10;22.27;;;;;;;19.33;41.89;100646.25;4977703;28;20431;-78
2022/11/05 11:32:33;;;;;;;32.97;22.30;;;;;;;19.32;41.74;100638.41;4984862;28;20379;-79
2022/11/05 11:35:00;;;;;;;30.33;21.42;;;;;;;19.45;41.63;100632.84;4984643;28;20388;-77
2022/11/05 11:37:33;;;;;;;34.75;22.15;;;;;;;19.51;41.37;100633.78;4972266;28;20386;-77
2022/11/05 11:40:11;;;;;;;31.60;22.00;;;;;;;19.58;41.47;100635.31;4986487;28;20419;-78
2022/11/05 11:42:39;;;;;;;34.55;22.13;;;;;;;19.62;41.55;100627.59;4971919;28;20629;-78
2022/11/05 11:45:16;;;;;;;38.20;21.40;;;;;;;19.58;41.60;100640.69;4985740;28;20398;-77
2022/11/05 11:47:47;;;;;;;32.97;22.27;;;;;;;19.48;41.49;100633.22;4983086;28;20474;-78
2022/11/05 11:50:41;;;;;;;33.45;21.95;;;;;;;19.53;41.42;100639.75;4985537;28;20457;-80
2022/11/05 11:53:19;;;;;;;31.65;21.55;;;;;;;19.67;41.24;100641.19;4964892;28;20866;-78
2022/11/05 11:55:54;;;;;;;33.85;21.40;;;;;;;19.67;41.03;100643.88;4982780;28;20487;-77
2022/11/05 11:58:21;;;;;;;33.67;20.80;;;;;;;19.74;41.07;100639.22;4983760;28;20376;-78
2022/11/05 12:00:54;;;;;;;32.65;20.83;;;;;;;19.74;41.02;100633.03;4981298;28;20387;-77